createdAt,value
2017-04-18T00:00:51.288Z,0
2017-04-18T00:02:00.074Z,0
2017-04-18T00:03:09.118Z,0
2017-04-18T00:04:18.129Z,0
2017-04-18T00:05:27.478Z,0
2017-04-18T00:06:36.942Z,0
2017-04-18T00:07:46.028Z,0
2017-04-18T00:08:55.894Z,0
2017-04-18T00:10:05.587Z,0
2017-04-18T00:11:14.674Z,0
2017-04-18T00:12:23.447Z,0
2017-04-18T00:13:33.160Z,0
2017-04-18T00:14:42.221Z,0
2017-04-18T00:15:51.319Z,0
2017-04-18T00:17:00.081Z,0
2017-04-18T00:18:09.159Z,0
2017-04-18T00:19:18.762Z,0
2017-04-18T00:20:28.109Z,0
2017-04-18T00:21:37.340Z,0
2017-04-18T00:22:46.129Z,0
2017-04-18T00:23:55.192Z,0
2017-04-18T00:25:04.539Z,0
2017-04-18T00:26:13.307Z,0
2017-04-18T00:27:22.399Z,0
2017-04-18T00:28:31.494Z,0
2017-04-18T00:29:40.590Z,0
2017-04-18T00:30:49.584Z,0
2017-04-18T00:31:58.678Z,0
2017-04-18T00:33:07.782Z,0
2017-04-18T00:34:17.386Z,0
2017-04-18T00:35:26.376Z,0
2017-04-18T00:36:35.762Z,0
2017-04-18T00:37:44.859Z,0
2017-04-18T00:38:54.199Z,0
2017-04-18T00:40:03.607Z,0
2017-04-18T00:41:12.394Z,0
2017-04-18T00:42:21.188Z,0
2017-04-18T00:43:30.586Z,0
2017-04-18T00:44:39.982Z,0
2017-04-18T00:45:48.968Z,0
2017-04-18T00:46:57.763Z,0
2017-04-18T00:48:06.545Z,0
2017-04-18T00:49:16.252Z,0
2017-04-18T00:50:25.339Z,0
2017-04-18T00:51:34.741Z,0
2017-04-18T00:52:43.837Z,0
2017-04-18T00:53:52.933Z,0
2017-04-18T00:55:02.634Z,0
2017-04-18T00:56:11.435Z,0
2017-04-18T00:57:20.226Z,0
2017-04-18T00:58:29.014Z,0
2017-04-18T00:59:38.411Z,0
2017-04-18T01:00:48.118Z,0
2017-04-18T01:01:56.903Z,0
2017-04-18T01:03:05.944Z,0
2017-04-18T01:04:15.645Z,0
2017-04-18T01:05:24.743Z,0
2017-04-18T01:06:33.833Z,0
2017-04-18T01:07:42.632Z,0
2017-04-18T01:08:52.343Z,0
2017-04-18T01:10:01.478Z,0
2017-04-18T01:11:10.875Z,0
2017-04-18T01:12:19.609Z,0
2017-04-18T01:13:28.694Z,0
2017-04-18T01:14:38.395Z,0
2017-04-18T01:15:47.189Z,0
2017-04-18T01:16:56.287Z,0
2017-04-18T01:18:05.071Z,0
2017-04-18T01:19:14.468Z,0
2017-04-18T01:20:23.201Z,0
2017-04-18T01:21:31.919Z,0
2017-04-18T01:22:40.689Z,0
2017-04-18T01:23:49.714Z,0
2017-04-18T01:24:58.792Z,0
2017-04-18T01:26:08.173Z,0
2017-04-18T01:27:16.956Z,0
2017-04-18T01:28:26.053Z,0
2017-04-18T01:29:35.148Z,0
2017-04-18T01:30:44.239Z,0
2017-04-18T01:31:53.012Z,0
2017-04-18T01:33:01.734Z,0
2017-04-18T01:34:10.826Z,0
2017-04-18T01:35:20.066Z,0
2017-04-18T01:36:28.850Z,0
2017-04-18T01:37:37.642Z,0
2017-04-18T01:38:47.398Z,0
2017-04-18T01:39:56.829Z,0
2017-04-18T01:41:06.347Z,0
2017-04-18T01:42:15.568Z,0
2017-04-18T01:43:24.805Z,0
2017-04-18T01:44:33.949Z,0
2017-04-18T01:45:43.065Z,0
2017-04-18T01:46:51.824Z,0
2017-04-18T01:48:00.960Z,0
2017-04-18T01:49:10.294Z,0
2017-04-18T01:50:19.291Z,0
2017-04-18T01:51:28.512Z,0
2017-04-18T01:52:38.082Z,0
2017-04-18T01:53:47.156Z,0
2017-04-18T01:54:56.526Z,0
2017-04-18T01:56:05.899Z,0
2017-04-18T01:57:14.975Z,0
2017-04-18T01:58:23.739Z,0
2017-04-18T01:59:33.654Z,0
2017-04-18T02:00:42.344Z,0
2017-04-18T02:01:51.086Z,0
2017-04-18T02:02:59.847Z,0
2017-04-18T02:04:08.908Z,0
2017-04-18T02:05:17.664Z,0
2017-04-18T02:06:26.727Z,0
2017-04-18T02:07:35.486Z,0
2017-04-18T02:08:44.808Z,0
2017-04-18T02:09:53.834Z,0
2017-04-18T02:11:02.838Z,0
2017-04-18T02:12:11.522Z,0
2017-04-18T02:13:20.570Z,0
2017-04-18T02:14:29.900Z,0
2017-04-18T02:15:39.552Z,0
2017-04-18T02:16:48.311Z,0
2017-04-18T02:17:57.074Z,0
2017-04-18T02:19:06.743Z,0
2017-04-18T02:20:15.495Z,0
2017-04-18T02:21:24.560Z,0
2017-04-18T02:22:34.235Z,0
2017-04-18T02:23:43.318Z,0
2017-04-18T02:24:52.403Z,0
2017-04-18T02:26:01.478Z,0
2017-04-18T02:27:10.540Z,0
2017-04-18T02:28:19.914Z,0
2017-04-18T02:29:28.979Z,0
2017-04-18T02:30:37.690Z,0
2017-04-18T02:31:46.746Z,0
2017-04-18T02:32:56.051Z,0
2017-04-18T02:34:05.348Z,0
2017-04-18T02:35:14.393Z,0
2017-04-18T02:36:23.442Z,0
2017-04-18T02:37:32.511Z,0
2017-04-18T02:38:41.877Z,0
2017-04-18T02:39:50.937Z,0
2017-04-18T02:40:59.998Z,0
2017-04-18T02:42:09.063Z,0
2017-04-18T02:43:18.120Z,0
2017-04-18T02:44:26.884Z,0
2017-04-18T02:45:35.947Z,0
2017-04-18T02:46:45.018Z,0
2017-04-18T02:47:54.624Z,0
2017-04-18T02:49:03.669Z,0
2017-04-18T02:50:12.734Z,0
2017-04-18T02:51:21.789Z,0
2017-04-18T02:52:30.503Z,0
2017-04-18T02:53:39.562Z,0
2017-04-18T02:54:49.254Z,0
2017-04-18T02:55:58.580Z,0
2017-04-18T02:57:07.631Z,0
2017-04-18T02:58:16.707Z,0
2017-04-18T02:59:25.469Z,0
2017-04-18T03:00:34.232Z,0
2017-04-18T03:01:43.288Z,0
2017-04-18T03:02:52.058Z,0
2017-04-18T03:04:00.829Z,0
2017-04-18T03:05:09.796Z,0
2017-04-18T03:06:18.863Z,0
2017-04-18T03:07:28.234Z,0
2017-04-18T03:08:38.208Z,0
2017-04-18T03:09:47.333Z,0
2017-04-18T03:10:56.467Z,0
2017-04-18T03:12:05.845Z,0
2017-04-18T03:13:14.596Z,0
2017-04-18T03:14:24.025Z,0
2017-04-18T03:15:32.855Z,0
2017-04-18T03:16:41.928Z,0
2017-04-18T03:17:51.051Z,0
2017-04-18T03:19:00.048Z,0
2017-04-18T03:20:08.752Z,0
2017-04-18T03:21:17.535Z,0
2017-04-18T03:22:27.380Z,0
2017-04-18T03:23:36.577Z,0
2017-04-18T03:24:45.746Z,0
2017-04-18T03:25:54.540Z,0
2017-04-18T03:27:03.558Z,0
2017-04-18T03:28:12.812Z,0
2017-04-18T03:29:21.878Z,0
2017-04-18T03:30:30.890Z,0
2017-04-18T03:31:39.637Z,0
2017-04-18T03:32:49.016Z,0
2017-04-18T03:33:58.085Z,0
2017-04-18T03:35:07.151Z,0
2017-04-18T03:36:16.476Z,0
2017-04-18T03:37:25.790Z,0
2017-04-18T03:38:35.142Z,0
2017-04-18T03:39:44.212Z,0
2017-04-18T03:40:52.969Z,0
2017-04-18T03:42:01.679Z,0
2017-04-18T03:43:10.734Z,0
2017-04-18T03:44:20.104Z,0
2017-04-18T03:45:28.860Z,0
2017-04-18T03:46:37.645Z,0
2017-04-18T03:47:46.705Z,0
2017-04-18T03:48:55.779Z,0
2017-04-18T03:50:04.876Z,0
2017-04-18T03:51:14.194Z,0
2017-04-18T03:52:23.255Z,0
2017-04-18T03:53:32.616Z,0
2017-04-18T03:54:42.140Z,0
2017-04-18T03:55:51.177Z,0
2017-04-18T03:57:00.239Z,0
2017-04-18T03:58:09.298Z,0
2017-04-18T03:59:18.975Z,0
2017-04-18T04:00:28.351Z,0
2017-04-18T04:01:37.714Z,0
2017-04-18T04:02:47.077Z,0
2017-04-18T04:03:55.816Z,0
2017-04-18T04:05:05.087Z,0
2017-04-18T04:06:14.096Z,0
2017-04-18T04:07:22.840Z,0
2017-04-18T04:08:32.151Z,0
2017-04-18T04:09:41.765Z,0
2017-04-18T04:10:51.433Z,0
2017-04-18T04:12:00.196Z,0
2017-04-18T04:13:08.975Z,4
2017-04-18T04:14:17.987Z,4
2017-04-18T04:15:26.939Z,4
2017-04-18T04:16:36.006Z,0
2017-04-18T04:17:45.329Z,0
2017-04-18T04:18:54.072Z,4
2017-04-18T04:20:03.148Z,0
2017-04-18T04:21:12.216Z,4
2017-04-18T04:22:21.278Z,8
2017-04-18T04:23:30.344Z,8
2017-04-18T04:24:39.357Z,8
2017-04-18T04:25:48.354Z,4
2017-04-18T04:26:57.406Z,8
2017-04-18T04:28:06.139Z,4
2017-04-18T04:29:14.897Z,12
2017-04-18T04:30:24.566Z,12
2017-04-18T04:31:33.586Z,12
2017-04-18T04:32:42.653Z,8
2017-04-18T04:33:52.033Z,12
2017-04-18T04:35:00.903Z,24
2017-04-18T04:36:09.709Z,20
2017-04-18T04:37:18.620Z,20
2017-04-18T04:38:27.336Z,24
2017-04-18T04:39:36.652Z,24
2017-04-18T04:40:45.361Z,28
2017-04-18T04:41:54.432Z,28
2017-04-18T04:43:03.502Z,24
2017-04-18T04:44:12.285Z,32
2017-04-18T04:45:21.375Z,28
2017-04-18T04:46:30.979Z,32
2017-04-18T04:47:40.216Z,40
2017-04-18T04:48:49.590Z,48
2017-04-18T04:49:58.687Z,32
2017-04-18T04:51:08.573Z,36
2017-04-18T04:52:17.359Z,48
2017-04-18T04:53:26.426Z,56
2017-04-18T04:54:35.486Z,48
2017-04-18T04:55:44.834Z,40
2017-04-18T04:56:53.901Z,56
2017-04-18T04:58:02.858Z,64
2017-04-18T04:59:12.232Z,72
2017-04-18T05:00:21.443Z,52
2017-04-18T05:01:30.559Z,52
2017-04-18T05:02:39.325Z,52
2017-04-18T05:03:48.702Z,60
2017-04-18T05:04:58.374Z,48
2017-04-18T05:06:07.446Z,56
2017-04-18T05:07:16.522Z,88
2017-04-18T05:08:25.588Z,68
2017-04-18T05:09:34.616Z,92
2017-04-18T05:10:43.364Z,60
2017-04-18T05:11:52.127Z,60
2017-04-18T05:13:01.208Z,88
2017-04-18T05:14:10.582Z,92
2017-04-18T05:15:19.597Z,128
2017-04-18T05:16:28.346Z,192
2017-04-18T05:17:37.419Z,208
2017-04-18T05:18:46.803Z,140
2017-04-18T05:19:56.172Z,140
2017-04-18T05:21:05.254Z,156
2017-04-18T05:22:14.027Z,180
2017-04-18T05:23:23.095Z,140
2017-04-18T05:24:32.468Z,136
2017-04-18T05:25:41.426Z,192
2017-04-18T05:26:50.179Z,304
2017-04-18T05:27:59.864Z,152
2017-04-18T05:29:08.933Z,148
2017-04-18T05:30:18.000Z,164
2017-04-18T05:31:26.764Z,172
2017-04-18T05:32:35.828Z,112
2017-04-18T05:33:45.457Z,172
2017-04-18T05:34:54.530Z,176
2017-04-18T05:36:03.507Z,128
2017-04-18T05:37:12.263Z,144
2017-04-18T05:38:21.030Z,252
2017-04-18T05:39:30.399Z,216
2017-04-18T05:40:39.121Z,256
2017-04-18T05:41:48.495Z,228
2017-04-18T05:42:57.561Z,196
2017-04-18T05:44:06.633Z,232
2017-04-18T05:45:15.712Z,280
2017-04-18T05:46:24.679Z,260
2017-04-18T05:47:33.441Z,276
2017-04-18T05:48:42.817Z,340
2017-04-18T05:49:52.808Z,388
2017-04-18T05:51:02.460Z,324
2017-04-18T05:52:11.226Z,344
2017-04-18T05:53:20.607Z,304
2017-04-18T05:54:29.987Z,284
2017-04-18T05:55:38.747Z,296
2017-04-18T05:56:47.504Z,276
2017-04-18T05:57:56.263Z,188
2017-04-18T05:59:05.585Z,184
2017-04-18T06:00:14.644Z,232
2017-04-18T06:01:23.706Z,264
2017-04-18T06:02:32.485Z,268
2017-04-18T06:03:41.871Z,212
2017-04-18T06:04:50.885Z,328
2017-04-18T06:06:00.861Z,340
2017-04-18T06:07:09.924Z,352
2017-04-18T06:08:18.876Z,324
2017-04-18T06:09:27.937Z,204
2017-04-18T06:10:37.007Z,248
2017-04-18T06:11:45.711Z,272
2017-04-18T06:12:55.673Z,432
2017-04-18T06:14:05.975Z,428
2017-04-18T06:15:15.056Z,396
2017-04-18T06:16:24.441Z,396
2017-04-18T06:17:33.205Z,288
2017-04-18T06:18:42.690Z,304
2017-04-18T06:19:52.012Z,328
2017-04-18T06:21:00.762Z,392
2017-04-18T06:22:09.832Z,468
2017-04-18T06:23:18.591Z,580
2017-04-18T06:24:27.689Z,640
2017-04-18T06:25:36.760Z,692
2017-04-18T06:26:45.489Z,676
2017-04-18T06:27:54.194Z,572
2017-04-18T06:29:03.574Z,504
2017-04-18T06:30:12.329Z,504
2017-04-18T06:31:21.352Z,472
2017-04-18T06:32:30.102Z,300
2017-04-18T06:33:38.874Z,292
2017-04-18T06:34:48.142Z,464
2017-04-18T06:35:57.524Z,512
2017-04-18T06:37:06.584Z,408
2017-04-18T06:38:15.973Z,332
2017-04-18T06:39:24.740Z,288
2017-04-18T06:40:33.504Z,316
2017-04-18T06:41:42.258Z,428
2017-04-18T06:42:51.011Z,588
2017-04-18T06:43:59.718Z,412
2017-04-18T06:45:08.720Z,520
2017-04-18T06:46:18.082Z,508
2017-04-18T06:47:27.152Z,440
2017-04-18T06:48:35.920Z,352
2017-04-18T06:49:45.596Z,252
2017-04-18T06:50:54.305Z,232
2017-04-18T06:52:03.053Z,244
2017-04-18T06:53:12.375Z,228
2017-04-18T06:54:21.741Z,380
2017-04-18T06:55:30.809Z,368
2017-04-18T06:56:39.874Z,332
2017-04-18T06:57:48.958Z,240
2017-04-18T06:58:57.669Z,256
2017-04-18T07:00:06.723Z,340
2017-04-18T07:01:16.108Z,876
2017-04-18T07:02:24.874Z,748
2017-04-18T07:03:34.255Z,676
2017-04-18T07:04:43.641Z,596
2017-04-18T07:05:52.351Z,1712
2017-04-18T07:07:01.128Z,1688
2017-04-18T07:08:10.500Z,1692
2017-04-18T07:09:19.833Z,2196
2017-04-18T07:10:28.892Z,3384
2017-04-18T07:11:37.654Z,2640
2017-04-18T07:12:46.717Z,2516
2017-04-18T07:13:55.507Z,2424
2017-04-18T07:15:05.205Z,3284
2017-04-18T07:16:13.965Z,2416
2017-04-18T07:17:22.726Z,2380
2017-04-18T07:18:31.794Z,3140
2017-04-18T07:19:40.852Z,2900
2017-04-18T07:20:50.220Z,2668
2017-04-18T07:21:58.981Z,2128
2017-04-18T07:23:07.763Z,1780
2017-04-18T07:24:16.851Z,904
2017-04-18T07:25:25.921Z,1048
2017-04-18T07:26:34.699Z,1804
2017-04-18T07:27:43.724Z,1316
2017-04-18T07:28:52.793Z,1776
2017-04-18T07:30:01.874Z,2464
2017-04-18T07:31:11.255Z,1212
2017-04-18T07:32:20.020Z,1204
2017-04-18T07:33:28.772Z,1368
2017-04-18T07:34:37.489Z,1144
2017-04-18T07:35:46.244Z,1656
2017-04-18T07:36:55.313Z,2956
2017-04-18T07:38:04.384Z,2912
2017-04-18T07:39:13.157Z,1592
2017-04-18T07:40:22.224Z,1924
2017-04-18T07:41:31.300Z,1496
2017-04-18T07:42:40.083Z,2120
2017-04-18T07:43:48.853Z,1904
2017-04-18T07:44:57.810Z,960
2017-04-18T07:46:06.589Z,3300
2017-04-18T07:47:15.577Z,1516
2017-04-18T07:48:24.349Z,1440
2017-04-18T07:49:33.445Z,1176
2017-04-18T07:50:42.525Z,1820
2017-04-18T07:51:51.464Z,1120
2017-04-18T07:53:00.172Z,956
2017-04-18T07:54:08.940Z,840
2017-04-18T07:55:18.047Z,936
2017-04-18T07:56:26.844Z,768
2017-04-18T07:57:35.960Z,868
2017-04-18T07:58:45.344Z,680
2017-04-18T07:59:54.415Z,680
2017-04-18T08:01:03.483Z,580
2017-04-18T08:02:12.243Z,520
2017-04-18T08:03:21.006Z,428
2017-04-18T08:04:29.777Z,448
2017-04-18T08:05:38.801Z,508
2017-04-18T08:06:47.559Z,464
2017-04-18T08:07:56.323Z,536
2017-04-18T08:09:05.407Z,784
2017-04-18T08:10:14.177Z,852
2017-04-18T08:11:23.255Z,692
2017-04-18T08:12:31.964Z,764
2017-04-18T08:13:40.714Z,672
2017-04-18T08:14:50.134Z,1152
2017-04-18T08:15:59.197Z,2252
2017-04-18T08:17:07.968Z,2496
2017-04-18T08:18:16.736Z,3884
2017-04-18T08:19:25.831Z,2036
2017-04-18T08:20:34.896Z,1608
2017-04-18T08:21:44.362Z,2000
2017-04-18T08:22:53.631Z,3752
2017-04-18T08:24:02.709Z,3052
2017-04-18T08:25:11.786Z,2796
2017-04-18T08:26:20.849Z,2944
2017-04-18T08:27:29.917Z,2304
2017-04-18T08:28:38.696Z,3408
2017-04-18T08:29:47.453Z,2192
2017-04-18T08:30:56.520Z,2016
2017-04-18T08:32:05.275Z,1636
2017-04-18T08:33:14.643Z,2228
2017-04-18T08:34:23.416Z,2336
2017-04-18T08:35:32.815Z,3204
2017-04-18T08:36:41.893Z,3628
2017-04-18T08:37:50.658Z,2668
2017-04-18T08:38:59.731Z,3860
2017-04-18T08:40:08.796Z,4000
2017-04-18T08:41:17.564Z,1612
2017-04-18T08:42:26.333Z,1364
2017-04-18T08:43:35.089Z,2488
2017-04-18T08:44:43.806Z,4684
2017-04-18T08:45:52.849Z,1880
2017-04-18T08:47:01.798Z,2984
2017-04-18T08:48:10.566Z,3144
2017-04-18T08:49:19.933Z,4736
2017-04-18T08:50:28.661Z,1908
2017-04-18T08:51:37.426Z,2944
2017-04-18T08:52:46.218Z,2644
2017-04-18T08:53:55.244Z,2328
2017-04-18T08:55:03.997Z,5792
2017-04-18T08:56:12.759Z,4524
2017-04-18T08:57:21.535Z,1912
2017-04-18T08:58:30.293Z,1460
2017-04-18T08:59:39.061Z,2176
2017-04-18T09:00:47.817Z,1448
2017-04-18T09:01:56.525Z,1336
2017-04-18T09:03:06.137Z,1196
2017-04-18T09:04:14.884Z,2112
2017-04-18T09:05:23.935Z,2044
2017-04-18T09:06:32.704Z,1092
2017-04-18T09:07:41.717Z,1132
2017-04-18T09:08:50.467Z,956
2017-04-18T09:09:59.231Z,816
2017-04-18T09:11:08.307Z,796
2017-04-18T09:12:17.644Z,1200
2017-04-18T09:13:26.945Z,1020
2017-04-18T09:14:36.296Z,908
2017-04-18T09:15:45.135Z,1072
2017-04-18T09:16:54.200Z,1152
2017-04-18T09:18:03.574Z,924
2017-04-18T09:19:12.898Z,912
2017-04-18T09:20:21.956Z,864
2017-04-18T09:21:30.730Z,956
2017-04-18T09:22:39.798Z,1080
2017-04-18T09:23:48.864Z,1844
2017-04-18T09:24:57.933Z,2160
2017-04-18T09:26:07.616Z,2260
2017-04-18T09:27:16.383Z,1468
2017-04-18T09:28:25.160Z,1380
2017-04-18T09:29:34.231Z,2184
2017-04-18T09:30:42.988Z,8712
2017-04-18T09:31:52.362Z,31968
2017-04-18T09:33:01.727Z,27424
2017-04-18T09:34:11.411Z,10696
2017-04-18T09:35:20.697Z,30368
2017-04-18T09:36:29.495Z,14556
2017-04-18T09:37:38.558Z,5580
2017-04-18T09:38:47.697Z,19616
2017-04-18T09:39:56.719Z,1828
2017-04-18T09:41:05.512Z,4996
2017-04-18T09:42:14.875Z,1216
2017-04-18T09:43:23.640Z,908
2017-04-18T09:44:33.329Z,3252
2017-04-18T09:45:42.392Z,2060
2017-04-18T09:46:51.155Z,1780
2017-04-18T09:47:59.919Z,1108
2017-04-18T09:49:08.982Z,804
2017-04-18T09:50:18.355Z,688
2017-04-18T09:51:27.434Z,716
2017-04-18T09:52:36.191Z,1272
2017-04-18T09:53:45.240Z,1724
2017-04-18T09:54:54.258Z,1324
2017-04-18T09:56:03.024Z,1064
2017-04-18T09:57:11.785Z,1016
2017-04-18T09:58:21.423Z,836
2017-04-18T09:59:30.485Z,804
2017-04-18T10:00:39.257Z,872
2017-04-18T10:01:48.021Z,1492
2017-04-18T10:02:57.141Z,6428
2017-04-18T10:04:06.209Z,3748
2017-04-18T10:05:15.225Z,5540
2017-04-18T10:06:24.275Z,4588
2017-04-18T10:07:33.352Z,3416
2017-04-18T10:08:42.124Z,4752
2017-04-18T10:09:51.196Z,1952
2017-04-18T10:11:00.878Z,3352
2017-04-18T10:12:09.648Z,2524
2017-04-18T10:13:18.374Z,2688
2017-04-18T10:14:27.434Z,2028
2017-04-18T10:15:36.215Z,5492
2017-04-18T10:16:45.274Z,17152
2017-04-18T10:17:54.347Z,8888
2017-04-18T10:19:03.449Z,4488
2017-04-18T10:20:12.513Z,3436
2017-04-18T10:21:21.531Z,2652
2017-04-18T10:22:30.590Z,30560
2017-04-18T10:23:39.676Z,8500
2017-04-18T10:24:48.693Z,4548
2017-04-18T10:25:57.741Z,3316
2017-04-18T10:27:06.766Z,3140
2017-04-18T10:28:15.505Z,1508
2017-04-18T10:29:24.692Z,880
2017-04-18T10:30:33.902Z,612
2017-04-18T10:31:43.303Z,452
2017-04-18T10:32:52.374Z,324
2017-04-18T10:34:01.143Z,364
2017-04-18T10:35:11.050Z,332
2017-04-18T10:36:20.521Z,320
2017-04-18T10:37:29.538Z,564
2017-04-18T10:38:38.529Z,644
2017-04-18T10:39:47.741Z,756
2017-04-18T10:40:56.458Z,664
2017-04-18T10:42:05.517Z,668
2017-04-18T10:43:14.280Z,676
2017-04-18T10:44:22.982Z,872
2017-04-18T10:45:32.032Z,944
2017-04-18T10:46:41.095Z,892
2017-04-18T10:47:50.158Z,832
2017-04-18T10:48:58.927Z,1072
2017-04-18T10:50:07.959Z,1220
2017-04-18T10:51:16.703Z,1628
2017-04-18T10:52:25.469Z,1720
2017-04-18T10:53:34.553Z,1600
2017-04-18T10:54:43.871Z,1536
2017-04-18T10:55:52.634Z,1496
2017-04-18T10:57:01.397Z,1612
2017-04-18T10:58:10.468Z,1888
2017-04-18T10:59:19.544Z,1964
2017-04-18T11:00:28.926Z,1564
2017-04-18T11:01:37.651Z,1120
2017-04-18T11:02:46.716Z,940
2017-04-18T11:03:56.099Z,816
2017-04-18T11:05:05.163Z,812
2017-04-18T11:06:13.901Z,944
2017-04-18T11:07:23.259Z,968
2017-04-18T11:08:32.637Z,780
2017-04-18T11:09:42.011Z,668
2017-04-18T11:10:51.086Z,608
2017-04-18T11:12:00.160Z,668
2017-04-18T11:13:09.234Z,608
2017-04-18T11:14:17.952Z,460
2017-04-18T11:15:26.955Z,356
2017-04-18T11:16:35.699Z,460
2017-04-18T11:17:44.461Z,500
2017-04-18T11:18:53.230Z,548
2017-04-18T11:20:02.294Z,608
2017-04-18T11:21:11.319Z,752
2017-04-18T11:22:20.019Z,916
2017-04-18T11:23:29.087Z,972
2017-04-18T11:24:39.063Z,856
2017-04-18T11:25:47.784Z,1060
2017-04-18T11:26:56.535Z,1060
2017-04-18T11:28:05.611Z,1348
2017-04-18T11:29:14.682Z,1924
2017-04-18T11:30:23.439Z,4016
2017-04-18T11:31:32.513Z,3556
2017-04-18T11:32:41.626Z,4528
2017-04-18T11:33:50.985Z,7632
2017-04-18T11:34:59.718Z,7784
2017-04-18T11:36:08.762Z,19872
2017-04-18T11:37:17.835Z,22528
2017-04-18T11:38:26.913Z,12528
2017-04-18T11:39:36.078Z,14380
2017-04-18T11:40:45.868Z,25088
2017-04-18T11:41:54.666Z,3792
2017-04-18T11:43:03.595Z,2196
2017-04-18T11:44:12.660Z,3304
2017-04-18T11:45:21.766Z,3596
2017-04-18T11:46:30.842Z,1820
2017-04-18T11:47:39.621Z,2076
2017-04-18T11:48:48.769Z,1308
2017-04-18T11:49:57.839Z,732
2017-04-18T11:51:07.363Z,928
2017-04-18T11:52:16.419Z,796
2017-04-18T11:53:25.186Z,1096
2017-04-18T11:54:34.244Z,1104
2017-04-18T11:55:43.314Z,800
2017-04-18T11:56:52.088Z,1100
2017-04-18T11:58:00.861Z,1684
2017-04-18T11:59:09.618Z,2416
2017-04-18T12:00:18.396Z,2564
2017-04-18T12:01:27.469Z,2216
2017-04-18T12:02:36.538Z,1712
2017-04-18T12:03:45.612Z,1984
2017-04-18T12:04:54.673Z,3460
2017-04-18T12:06:03.434Z,7368
2017-04-18T12:07:12.505Z,6552
2017-04-18T12:08:21.265Z,6204
2017-04-18T12:09:30.022Z,6676
2017-04-18T12:10:38.776Z,5304
2017-04-18T12:11:47.546Z,4584
2017-04-18T12:12:56.478Z,4060
2017-04-18T12:14:05.872Z,3360
2017-04-18T12:15:14.934Z,3980
2017-04-18T12:16:24.611Z,4352
2017-04-18T12:17:33.874Z,2548
2017-04-18T12:18:42.581Z,3592
2017-04-18T12:19:51.371Z,3460
2017-04-18T12:21:00.433Z,3900
2017-04-18T12:22:09.179Z,3696
2017-04-18T12:23:18.185Z,2732
2017-04-18T12:24:27.539Z,3252
2017-04-18T12:25:36.607Z,3952
2017-04-18T12:26:45.372Z,3312
2017-04-18T12:27:54.445Z,3460
2017-04-18T12:29:03.536Z,2904
2017-04-18T12:30:12.549Z,2812
2017-04-18T12:31:21.612Z,2956
2017-04-18T12:32:30.378Z,2216
2017-04-18T12:33:39.136Z,2588
2017-04-18T12:34:47.895Z,1704
2017-04-18T12:35:56.645Z,1072
2017-04-18T12:37:05.397Z,1324
2017-04-18T12:38:14.467Z,2064
2017-04-18T12:39:23.227Z,1460
2017-04-18T12:40:32.471Z,1656
2017-04-18T12:41:41.357Z,3592
2017-04-18T12:42:50.916Z,4176
2017-04-18T12:43:59.878Z,2708
2017-04-18T12:45:08.688Z,2520
2017-04-18T12:46:17.715Z,2492
2017-04-18T12:47:27.114Z,2528
2017-04-18T12:48:36.534Z,2992
2017-04-18T12:49:45.909Z,3692
2017-04-18T12:50:54.680Z,3200
2017-04-18T12:52:03.444Z,2796
2017-04-18T12:53:12.448Z,1980
2017-04-18T12:54:21.211Z,1228
2017-04-18T12:55:30.172Z,848
2017-04-18T12:56:38.879Z,640
2017-04-18T12:57:47.925Z,652
2017-04-18T12:58:56.691Z,508
2017-04-18T13:00:05.446Z,396
2017-04-18T13:01:14.720Z,388
2017-04-18T13:02:23.730Z,608
2017-04-18T13:03:32.477Z,816
2017-04-18T13:04:41.185Z,928
2017-04-18T13:05:49.882Z,1268
2017-04-18T13:06:58.635Z,1688
2017-04-18T13:08:07.396Z,1640
2017-04-18T13:09:16.170Z,2172
2017-04-18T13:10:25.190Z,2196
2017-04-18T13:11:34.464Z,2360
2017-04-18T13:12:43.224Z,2672
2017-04-18T13:13:52.650Z,2544
2017-04-18T13:15:01.367Z,2188
2017-04-18T13:16:10.721Z,1732
2017-04-18T13:17:19.487Z,1996
2017-04-18T13:18:28.250Z,1892
2017-04-18T13:19:36.966Z,1888
2017-04-18T13:20:45.664Z,1864
2017-04-18T13:21:54.427Z,1968
2017-04-18T13:23:03.498Z,1848
2017-04-18T13:24:12.243Z,2604
2017-04-18T13:25:21.370Z,2184
2017-04-18T13:26:30.435Z,1340
2017-04-18T13:27:39.221Z,2056
2017-04-18T13:28:48.082Z,2588
2017-04-18T13:29:57.036Z,2196
2017-04-18T13:31:05.832Z,2360
2017-04-18T13:32:14.885Z,1784
2017-04-18T13:33:23.642Z,2904
2017-04-18T13:34:32.396Z,2392
2017-04-18T13:35:41.165Z,2460
2017-04-18T13:36:50.084Z,2512
2017-04-18T13:37:58.837Z,864
2017-04-18T13:39:07.847Z,732
2017-04-18T13:40:16.915Z,788
2017-04-18T13:41:25.675Z,752
2017-04-18T13:42:34.449Z,884
2017-04-18T13:43:43.217Z,956
2017-04-18T13:44:52.335Z,1732
2017-04-18T13:46:01.404Z,1112
2017-04-18T13:47:10.795Z,772
2017-04-18T13:48:20.164Z,588
2017-04-18T13:49:29.738Z,620
2017-04-18T13:50:38.803Z,944
2017-04-18T13:51:48.230Z,1208
2017-04-18T13:52:56.990Z,1752
2017-04-18T13:54:05.724Z,1880
2017-04-18T13:55:14.694Z,1632
2017-04-18T13:56:23.481Z,1344
2017-04-18T13:57:32.252Z,1192
2017-04-18T13:58:40.998Z,1136
2017-04-18T13:59:49.957Z,1144
2017-04-18T14:00:58.718Z,792
2017-04-18T14:02:07.491Z,1252
2017-04-18T14:03:16.264Z,1380
2017-04-18T14:04:25.290Z,1280
2017-04-18T14:05:34.027Z,1164
2017-04-18T14:06:42.789Z,1184
2017-04-18T14:07:51.568Z,1636
2017-04-18T14:09:00.326Z,2020
2017-04-18T14:10:09.715Z,2076
2017-04-18T14:11:18.785Z,1680
2017-04-18T14:12:27.637Z,1568
2017-04-18T14:13:36.708Z,1328
2017-04-18T14:14:45.789Z,1660
2017-04-18T14:15:54.538Z,1580
2017-04-18T14:17:03.625Z,1344
2017-04-18T14:18:12.403Z,1300
2017-04-18T14:19:21.176Z,1020
2017-04-18T14:20:30.161Z,1420
2017-04-18T14:21:38.933Z,1956
2017-04-18T14:22:47.994Z,2104
2017-04-18T14:23:56.767Z,2052
2017-04-18T14:25:05.529Z,1916
2017-04-18T14:26:14.241Z,1704
2017-04-18T14:27:23.488Z,1472
2017-04-18T14:28:32.204Z,1568
2017-04-18T14:29:41.270Z,1348
2017-04-18T14:30:50.650Z,1004
2017-04-18T14:31:59.422Z,1068
2017-04-18T14:33:08.796Z,1032
2017-04-18T14:34:17.519Z,964
2017-04-18T14:35:26.268Z,968
2017-04-18T14:36:35.033Z,972
2017-04-18T14:37:44.103Z,1036
2017-04-18T14:38:53.179Z,1348
2017-04-18T14:40:01.946Z,1508
2017-04-18T14:41:10.976Z,1388
2017-04-18T14:42:20.058Z,1700
2017-04-18T14:43:29.130Z,1748
2017-04-18T14:44:37.903Z,1116
2017-04-18T14:45:46.962Z,824
2017-04-18T14:46:55.721Z,572
2017-04-18T14:48:04.486Z,560
2017-04-18T14:49:13.872Z,784
2017-04-18T14:50:22.945Z,704
2017-04-18T14:51:31.712Z,828
2017-04-18T14:52:41.087Z,960
2017-04-18T14:53:50.451Z,1132
2017-04-18T14:54:59.415Z,1008
2017-04-18T14:56:08.480Z,1292
2017-04-18T14:57:17.236Z,1336
2017-04-18T14:58:26.601Z,1168
2017-04-18T14:59:35.655Z,904
2017-04-18T15:00:44.461Z,900
2017-04-18T15:01:53.530Z,1164
2017-04-18T15:03:02.288Z,1120
2017-04-18T15:04:11.311Z,1124
2017-04-18T15:05:20.644Z,964
2017-04-18T15:06:30.020Z,836
2017-04-18T15:07:38.782Z,1020
2017-04-18T15:08:47.805Z,1012
2017-04-18T15:09:56.856Z,1052
2017-04-18T15:11:06.134Z,1148
2017-04-18T15:12:14.903Z,1332
2017-04-18T15:13:24.576Z,1384
2017-04-18T15:14:33.647Z,1472
2017-04-18T15:15:42.620Z,1456
2017-04-18T15:16:51.387Z,1408
2017-04-18T15:18:00.150Z,1348
2017-04-18T15:19:09.217Z,1520
2017-04-18T15:20:18.275Z,1416
2017-04-18T15:21:27.039Z,1344
2017-04-18T15:22:35.821Z,1300
2017-04-18T15:23:44.887Z,1244
2017-04-18T15:24:53.951Z,1176
2017-04-18T15:26:02.721Z,1100
2017-04-18T15:27:11.494Z,992
2017-04-18T15:28:20.240Z,904
2017-04-18T15:29:29.300Z,944
2017-04-18T15:30:38.313Z,1188
2017-04-18T15:31:47.076Z,1212
2017-04-18T15:32:56.304Z,1152
2017-04-18T15:34:05.050Z,1008
2017-04-18T15:35:13.824Z,808
2017-04-18T15:36:22.582Z,812
2017-04-18T15:37:31.651Z,644
2017-04-18T15:38:40.718Z,644
2017-04-18T15:39:49.428Z,572
2017-04-18T15:40:58.430Z,556
2017-04-18T15:42:07.502Z,528
2017-04-18T15:43:16.557Z,524
2017-04-18T15:44:25.630Z,532
2017-04-18T15:45:34.400Z,536
2017-04-18T15:46:43.116Z,480
2017-04-18T15:47:51.872Z,492
2017-04-18T15:49:01.317Z,472
2017-04-18T15:50:10.153Z,452
2017-04-18T15:51:18.901Z,464
2017-04-18T15:52:27.970Z,460
2017-04-18T15:53:37.598Z,436
2017-04-18T15:54:46.697Z,404
2017-04-18T15:55:55.441Z,448
2017-04-18T15:57:04.951Z,448